createdAt,value
2022-11-16T00:01:47.653Z,101169.50
2022-11-16T00:04:14.892Z,101163.53
2022-11-16T00:06:42.043Z,101164.66
2022-11-16T00:09:23.663Z,101159.81
2022-11-16T00:11:53.675Z,101153.53
2022-11-16T00:14:22.262Z,101149.84
2022-11-16T00:16:49.604Z,101156.16
2022-11-16T00:19:17.356Z,101143.84
2022-11-16T00:21:44.601Z,101148.16
2022-11-16T00:24:18.004Z,101154.59
2022-11-16T00:26:45.860Z,101145.22
2022-11-16T00:29:19.417Z,101144.53
2022-11-16T00:31:47.244Z,101138.25
2022-11-16T00:34:15.193Z,101143.75
2022-11-16T00:36:43.387Z,101129.84
2022-11-16T00:39:15.083Z,101138.25
2022-11-16T00:41:43.007Z,101143.03
2022-11-16T00:44:10.989Z,101147.06
2022-11-16T00:46:38.373Z,101140.66
2022-11-16T00:49:07.504Z,101134.34
2022-11-16T00:51:35.684Z,101137.91
2022-11-16T00:54:04.872Z,101137.91
2022-11-16T00:56:35.756Z,101135.28
2022-11-16T00:59:03.823Z,101131.53
2022-11-16T01:01:31.080Z,101133.13
2022-11-16T01:03:58.294Z,101123.31
2022-11-16T01:06:25.363Z,101132.72
2022-11-16T01:08:53.354Z,101124.66
2022-11-16T01:11:42.497Z,101120.53
2022-11-16T01:14:10.484Z,101110.50
2022-11-16T01:16:37.995Z,101118.44
2022-11-16T01:19:05.704Z,101114.53
2022-11-16T01:21:33.193Z,101114.31
2022-11-16T01:24:01.608Z,101110.44
2022-11-16T01:26:28.972Z,101104.47
2022-11-16T01:28:56.250Z,101100.31
2022-11-16T01:31:23.843Z,101100.66
2022-11-16T01:33:56.919Z,101099.88
2022-11-16T01:36:27.425Z,101090.78
2022-11-16T01:38:58.265Z,101091.59
2022-11-16T01:41:30.721Z,101096.28
2022-11-16T01:44:04.791Z,101092.28
2022-11-16T01:46:38.277Z,101093.75
2022-11-16T01:49:14.828Z,101089.84
2022-11-16T01:51:46.859Z,101093.63
2022-11-16T01:54:15.549Z,101086.53
2022-11-16T01:56:56.697Z,101080.69
2022-11-16T01:59:47.511Z,101085.50
2022-11-16T02:02:18.092Z,101073.84
2022-11-16T02:04:47.961Z,101081.28
2022-11-16T02:07:28.116Z,101072.06
2022-11-16T02:10:04.416Z,101066.13
2022-11-16T02:12:57.589Z,101058.06
2022-11-16T02:15:43.850Z,101060.81
2022-11-16T02:18:28.921Z,101060.94
2022-11-16T02:21:14.731Z,101051.09
2022-11-16T02:24:03.405Z,101058.31
2022-11-16T02:26:55.504Z,101047.91
2022-11-16T02:29:38.190Z,101043.22
2022-11-16T02:32:23.846Z,101034.03
2022-11-16T02:35:06.736Z,101032.78
2022-11-16T02:37:39.377Z,101034.03
2022-11-16T02:40:11.511Z,101032.69
2022-11-16T02:42:44.045Z,101022.72
2022-11-16T02:45:21.240Z,101027.13
2022-11-16T02:47:51.448Z,101022.28
2022-11-16T02:50:21.861Z,101014.84
2022-11-16T02:52:49.024Z,101025.47
2022-11-16T02:55:16.258Z,101024.81
2022-11-16T02:57:51.508Z,101019.53
2022-11-16T03:00:46.286Z,101012.97
2022-11-16T03:03:24.178Z,101014.13
2022-11-16T03:05:58.480Z,101013.63
2022-11-16T03:08:30.195Z,101015.16
2022-11-16T03:11:23.992Z,101007.88
2022-11-16T03:13:57.661Z,101012.94
2022-11-16T03:16:37.092Z,101007.44
2022-11-16T03:19:10.837Z,100997.56
2022-11-16T03:21:50.003Z,101001.72
2022-11-16T03:24:19.768Z,100997.81
2022-11-16T03:26:50.718Z,100991.06
2022-11-16T03:29:29.670Z,100990.28
2022-11-16T03:32:09.661Z,100992.19
2022-11-16T03:34:39.092Z,100993.25
2022-11-16T03:37:06.824Z,100987.75
2022-11-16T03:39:39.794Z,100993.81
2022-11-16T03:42:14.636Z,100993.50
2022-11-16T03:44:49.009Z,100995.56
2022-11-16T03:47:16.199Z,100993.41
2022-11-16T03:49:47.886Z,100992.16
2022-11-16T03:52:18.284Z,100994.78
2022-11-16T03:54:47.015Z,100993.38
2022-11-16T03:57:18.853Z,100993.38
2022-11-16T03:59:54.544Z,100994.97
2022-11-16T04:02:21.769Z,100993.72
2022-11-16T04:05:08.918Z,100991.75
2022-11-16T04:07:55.922Z,100981.31
2022-11-16T04:10:42.817Z,100977.31
2022-11-16T04:13:31.379Z,100981.06
2022-11-16T04:16:16.795Z,100981.41
2022-11-16T04:19:03.645Z,100971.22
2022-11-16T04:22:01.337Z,100975.69
2022-11-16T04:24:38.269Z,100975.00
2022-11-16T04:27:29.967Z,100961.13
2022-11-16T04:29:59.907Z,100963.88
2022-11-16T04:32:47.088Z,100962.50
2022-11-16T04:35:32.667Z,100953.13
2022-11-16T04:38:00.326Z,100954.38
2022-11-16T04:40:31.464Z,100957.28
2022-11-16T04:43:03.638Z,100957.72
2022-11-16T04:45:58.041Z,100950.13
2022-11-16T04:48:30.527Z,100956.56
2022-11-16T04:50:57.655Z,100958.81
2022-11-16T04:53:27.227Z,100948.50
2022-11-16T04:56:22.804Z,100946.91
2022-11-16T04:58:50.027Z,100953.88
2022-11-16T05:01:17.243Z,100945.63
2022-11-16T05:03:45.622Z,100937.72
2022-11-16T05:06:13.470Z,100942.19
2022-11-16T05:08:40.570Z,100938.97
2022-11-16T05:11:08.211Z,100934.44
2022-11-16T05:13:35.428Z,100933.06
2022-11-16T05:16:03.092Z,100935.47
2022-11-16T05:18:30.267Z,100929.06
2022-11-16T05:21:04.094Z,100923.31
2022-11-16T05:23:55.227Z,100928.38
2022-11-16T05:26:25.080Z,100922.19
2022-11-16T05:28:53.853Z,100924.13
2022-11-16T05:31:21.289Z,100916.91
2022-11-16T05:33:48.936Z,100914.16
2022-11-16T05:36:16.660Z,100913.34
2022-11-16T05:38:44.091Z,100924.00
2022-11-16T05:41:11.268Z,100914.28
2022-11-16T05:43:38.446Z,100914.38
2022-11-16T05:46:17.026Z,100921.84
2022-11-16T05:48:44.186Z,100920.00
2022-11-16T05:51:12.779Z,100918.66
2022-11-16T05:53:39.836Z,100913.38
2022-11-16T05:56:07.532Z,100911.69
2022-11-16T05:58:38.325Z,100912.59
2022-11-16T06:01:06.320Z,100911.09
2022-11-16T06:03:33.715Z,100917.09
2022-11-16T06:06:01.589Z,100911.00
2022-11-16T06:08:30.921Z,100910.75
2022-11-16T06:11:06.678Z,100911.22
2022-11-16T06:13:35.958Z,100906.16
2022-11-16T06:16:04.815Z,100900.75
2022-11-16T06:18:38.665Z,100904.66
2022-11-16T06:21:06.895Z,100907.09
2022-11-16T06:23:34.371Z,100910.47
2022-11-16T06:26:03.344Z,100912.31
2022-11-16T06:28:33.100Z,100912.63
2022-11-16T06:31:00.765Z,100919.13
2022-11-16T06:33:33.708Z,100924.03
2022-11-16T06:36:04.755Z,100917.59
2022-11-16T06:38:33.044Z,100923.66
2022-11-16T06:41:01.608Z,100927.88
2022-11-16T06:43:30.005Z,100916.28
2022-11-16T06:46:00.880Z,100914.75
2022-11-16T06:48:28.245Z,100924.28
2022-11-16T06:50:55.831Z,100924.03
2022-11-16T06:53:28.705Z,100920.31
2022-11-16T06:56:06.152Z,100927.16
2022-11-16T06:58:41.615Z,100924.59
2022-11-16T07:01:11.656Z,100933.75
2022-11-16T07:03:41.141Z,100929.25
2022-11-16T07:06:12.035Z,100924.97
2022-11-16T07:08:41.217Z,100925.06
2022-11-16T07:11:11.134Z,100918.56
2022-11-16T07:13:39.271Z,100923.28
2022-11-16T07:16:10.835Z,100908.22
2022-11-16T07:18:42.569Z,100906.81
2022-11-16T07:21:13.567Z,100923.44
2022-11-16T07:23:42.483Z,100911.69
2022-11-16T07:26:12.264Z,100916.59
2022-11-16T07:28:48.475Z,100912.84
2022-11-16T07:31:19.671Z,100910.94
2022-11-16T07:33:48.681Z,100914.56
2022-11-16T07:36:34.393Z,100909.19
2022-11-16T07:39:03.361Z,100910.53
2022-11-16T07:41:30.706Z,100917.38
2022-11-16T07:44:13.580Z,100904.81
2022-11-16T07:46:47.501Z,100910.50
2022-11-16T07:49:18.559Z,100902.75
2022-11-16T07:51:53.395Z,100899.59
2022-11-16T07:54:46.871Z,100900.94
2022-11-16T07:57:15.291Z,100902.75
2022-11-16T07:59:43.197Z,100898.53
2022-11-16T08:02:12.816Z,100898.97
2022-11-16T08:04:41.883Z,100893.25
2022-11-16T08:07:09.600Z,100887.97
2022-11-16T08:09:43.695Z,100886.19
2022-11-16T08:12:14.339Z,100873.25
2022-11-16T08:14:41.450Z,100882.03
2022-11-16T08:17:08.666Z,100874.25
2022-11-16T08:19:40.402Z,100885.09
2022-11-16T08:22:09.236Z,100888.44
2022-11-16T08:24:36.512Z,100884.88
2022-11-16T08:27:03.783Z,100892.03
2022-11-16T08:29:33.651Z,100890.69
2022-11-16T08:32:02.831Z,100889.56
2022-11-16T08:34:29.909Z,100890.72
2022-11-16T08:37:00.415Z,100886.53
2022-11-16T08:39:37.557Z,100890.63
2022-11-16T08:42:04.776Z,100887.78
2022-11-16T08:44:32.117Z,100896.09
2022-11-16T08:47:03.359Z,100890.75
2022-11-16T08:49:36.420Z,100886.34
2022-11-16T08:52:05.409Z,100886.63
2022-11-16T08:54:33.623Z,100882.56
2022-11-16T08:57:00.822Z,100876.66
2022-11-16T08:59:30.538Z,100874.91
2022-11-16T09:02:06.169Z,100872.00
2022-11-16T09:04:37.068Z,100873.28
2022-11-16T09:07:04.758Z,100872.75
2022-11-16T09:09:32.051Z,100874.72
2022-11-16T09:11:59.060Z,100879.31
2022-11-16T09:14:29.167Z,100867.69
2022-11-16T09:16:56.272Z,100867.41
2022-11-16T09:19:23.545Z,100874.66
2022-11-16T09:21:50.645Z,100872.28
2022-11-16T09:24:17.816Z,100874.63
2022-11-16T09:26:45.031Z,100870.16
2022-11-16T09:29:13.826Z,100867.84
2022-11-16T09:31:44.616Z,100867.59
2022-11-16T09:34:11.939Z,100861.03
2022-11-16T09:36:39.157Z,100853.50
2022-11-16T09:42:18.083Z,100853.00
2022-11-16T09:45:00.581Z,100842.97
2022-11-16T09:47:49.341Z,100830.22
2022-11-16T09:50:30.513Z,100840.84
2022-11-16T09:53:06.506Z,100834.88
2022-11-16T09:55:49.274Z,100833.78
2022-11-16T09:58:24.202Z,100827.66
2022-11-16T10:00:59.114Z,100814.41
2022-11-16T10:03:29.380Z,100823.88
2022-11-16T10:06:06.679Z,100814.63
2022-11-16T10:08:33.845Z,100813.75
2022-11-16T10:11:15.008Z,100808.06
2022-11-16T10:14:01.364Z,100802.06
2022-11-16T10:16:46.286Z,100799.53
2022-11-16T10:19:38.251Z,100789.53
2022-11-16T10:22:21.664Z,100786.97
2022-11-16T10:24:58.624Z,100774.94
2022-11-16T10:28:03.148Z,100779.53
2022-11-16T10:30:39.299Z,100770.00
2022-11-16T10:33:14.755Z,100769.88
2022-11-16T10:35:52.143Z,100753.25
2022-11-16T10:38:25.398Z,100752.28
2022-11-16T10:40:56.716Z,100752.41
2022-11-16T10:43:28.816Z,100741.91
2022-11-16T10:46:17.764Z,100733.50
2022-11-16T10:48:50.901Z,100729.09
2022-11-16T10:51:18.214Z,100718.00
2022-11-16T10:53:45.332Z,100708.97
2022-11-16T10:56:32.026Z,100713.72
2022-11-16T10:59:08.061Z,100720.50
2022-11-16T11:01:46.645Z,100709.84
2022-11-16T11:04:25.947Z,100707.09
2022-11-16T11:07:22.776Z,100692.13
2022-11-16T11:09:53.936Z,100693.75
2022-11-16T11:12:41.400Z,100686.34
2022-11-16T11:15:11.472Z,100689.91
2022-11-16T11:17:43.532Z,100682.44
2022-11-16T11:20:17.162Z,100677.66
2022-11-16T11:22:49.784Z,100675.25
2022-11-16T11:25:24.856Z,100667.34
2022-11-16T11:28:04.245Z,100666.91
2022-11-16T11:30:31.432Z,100662.91
2022-11-16T11:32:59.244Z,100659.34
2022-11-16T11:35:33.072Z,100651.78
2022-11-16T11:38:07.997Z,100643.91
2022-11-16T11:40:36.364Z,100634.38
2022-11-16T11:43:06.223Z,100634.34
2022-11-16T11:45:40.291Z,100628.38
2022-11-16T11:48:48.056Z,100628.34
2022-11-16T11:51:17.939Z,100625.19
2022-11-16T11:53:57.187Z,100628.44
2022-11-16T11:56:26.462Z,100613.78
2022-11-16T11:58:54.347Z,100618.13
2022-11-16T12:01:39.731Z,100611.44
2022-11-16T12:04:09.643Z,100609.78
2022-11-16T12:06:58.489Z,100605.81
2022-11-16T12:10:04.369Z,100605.44
2022-11-16T12:12:48.716Z,100588.78
2022-11-16T12:15:33.710Z,100595.53
2022-11-16T12:18:12.912Z,100589.50
2022-11-16T12:21:05.823Z,100589.50
2022-11-16T12:24:10.241Z,100587.56
2022-11-16T12:26:46.634Z,100579.16
2022-11-16T12:29:16.988Z,100571.63
2022-11-16T12:32:30.709Z,100570.47
2022-11-16T12:35:16.029Z,100564.50
2022-11-16T12:38:00.602Z,100568.50
2022-11-16T12:40:51.818Z,100558.06
2022-11-16T12:43:47.510Z,100552.09
2022-11-16T12:46:33.200Z,100550.56
2022-11-16T12:49:12.404Z,100552.56
2022-11-16T12:52:00.953Z,100554.16
2022-11-16T12:55:19.097Z,100556.97
2022-11-16T12:57:42.442Z,100547.03
2022-11-16T13:00:18.930Z,100545.47
2022-11-16T13:03:11.065Z,100545.06
2022-11-16T13:05:45.291Z,100537.50
2022-11-16T13:08:15.219Z,100533.56
2022-11-16T13:10:46.669Z,100537.13
2022-11-16T13:13:39.373Z,100534.72
2022-11-16T13:16:07.990Z,100533.16
2022-11-16T13:18:40.481Z,100527.19
2022-11-16T13:21:13.533Z,100521.22
2022-11-16T13:24:12.467Z,100524.00
2022-11-16T13:26:48.885Z,100514.88
2022-11-16T13:29:30.704Z,100518.44
2022-11-16T13:32:06.796Z,100518.47
2022-11-16T13:34:37.878Z,100525.22
2022-11-16T13:37:38.729Z,100524.41
2022-11-16T13:40:05.887Z,100517.66
2022-11-16T13:43:05.276Z,100508.94
2022-11-16T13:45:43.600Z,100524.81
2022-11-16T13:48:20.607Z,100516.88
2022-11-16T13:50:56.210Z,100508.09
2022-11-16T13:56:25.632Z,100516.00
2022-11-16T13:58:55.995Z,100512.06
2022-11-16T14:01:24.019Z,100517.63
2022-11-16T14:03:52.912Z,100527.09
2022-11-16T14:06:19.871Z,100518.38
2022-11-16T14:08:57.591Z,100509.66
2022-11-16T14:11:33.376Z,100517.59
2022-11-16T14:14:05.940Z,100522.34
2022-11-16T14:16:53.371Z,100528.72
2022-11-16T14:19:47.666Z,100522.72
2022-11-16T14:23:07.371Z,100528.66
2022-11-16T14:25:47.915Z,100521.53
2022-11-16T14:28:40.308Z,100519.91
2022-11-16T14:31:21.657Z,100512.41
2022-11-16T14:33:54.594Z,100506.00
2022-11-16T14:36:37.147Z,100504.81
2022-11-16T14:39:32.329Z,100498.06
2022-11-16T14:42:15.259Z,100502.41
2022-11-16T14:44:43.793Z,100498.41
2022-11-16T14:47:32.700Z,100501.16
2022-11-16T14:49:59.846Z,100494.38
2022-11-16T14:52:37.903Z,100498.31
2022-11-16T14:55:10.720Z,100494.69
2022-11-16T14:57:37.805Z,100494.66
2022-11-16T15:00:19.602Z,100493.03
2022-11-16T15:02:52.072Z,100501.75
2022-11-16T15:05:22.522Z,100491.81
2022-11-16T15:07:53.219Z,100489.75
2022-11-16T15:10:23.594Z,100487.38
2022-11-16T15:12:52.446Z,100488.94
2022-11-16T15:15:24.475Z,100488.47
2022-11-16T15:18:00.951Z,100488.38
2022-11-16T15:20:34.177Z,100487.91
2022-11-16T15:23:02.961Z,100486.63
2022-11-16T15:25:43.561Z,100500.81
2022-11-16T15:28:33.303Z,100494.38
2022-11-16T15:31:04.771Z,100501.44
2022-11-16T15:33:41.452Z,100497.81
2022-11-16T15:36:31.458Z,100504.84
2022-11-16T15:39:01.352Z,100495.69
2022-11-16T15:41:29.610Z,100485.66
2022-11-16T15:44:13.884Z,100497.47
2022-11-16T15:46:45.434Z,100489.09
2022-11-16T15:49:36.343Z,100492.09
2022-11-16T15:52:04.004Z,100487.66
2022-11-16T15:54:51.678Z,100495.09
2022-11-16T15:57:21.013Z,100496.97
2022-11-16T15:59:56.792Z,100502.84
2022-11-16T16:02:30.369Z,100501.97
2022-11-16T16:04:57.862Z,100501.47
2022-11-16T16:07:39.979Z,100502.47
2022-11-16T16:10:19.377Z,100501.97
2022-11-16T16:12:56.851Z,100506.31
2022-11-16T16:15:30.472Z,100498.28
2022-11-16T16:17:59.216Z,100497.38
2022-11-16T16:20:30.352Z,100500.00
2022-11-16T16:23:16.049Z,100501.09
2022-11-16T16:25:49.008Z,100501.81
2022-11-16T16:28:17.640Z,100504.88
2022-11-16T16:30:44.721Z,100511.09
2022-11-16T16:33:22.139Z,100504.66
2022-11-16T16:35:51.106Z,100505.78
2022-11-16T16:38:18.264Z,100504.91
2022-11-16T16:40:45.274Z,100501.28
2022-11-16T16:43:12.495Z,100500.06
2022-11-16T16:45:43.261Z,100508.72
2022-11-16T16:48:14.088Z,100504.72
2022-11-16T16:50:41.821Z,100510.53
2022-11-16T16:53:12.675Z,100512.41
2022-11-16T16:55:40.414Z,100510.78
2022-11-16T16:58:07.623Z,100519.00
2022-11-16T17:00:34.781Z,100514.94
2022-11-16T17:03:01.955Z,100515.31
2022-11-16T17:05:30.416Z,100523.16
2022-11-16T17:07:57.469Z,100525.84
2022-11-16T17:10:24.745Z,100532.03
2022-11-16T17:12:55.664Z,100531.94
2022-11-16T17:15:23.787Z,100530.66
2022-11-16T17:17:51.141Z,100534.94
2022-11-16T17:20:18.218Z,100527.81
2022-11-16T17:22:46.099Z,100528.63
2022-11-16T17:25:13.453Z,100530.50
2022-11-16T17:27:44.365Z,100525.28
2022-11-16T17:30:12.097Z,100524.41
2022-11-16T17:32:39.388Z,100533.84
2022-11-16T17:35:06.575Z,100521.13
2022-11-16T17:37:33.742Z,100527.38
2022-11-16T17:40:00.727Z,100521.44
2022-11-16T17:42:27.914Z,100519.75
2022-11-16T17:44:55.433Z,100514.97
2022-11-16T17:47:22.636Z,100517.38
2022-11-16T17:49:49.700Z,100524.91
2022-11-16T17:52:16.860Z,100520.53
2022-11-16T17:54:43.985Z,100527.69
2022-11-16T17:57:11.179Z,100522.97
2022-11-16T17:59:38.433Z,100521.38
2022-11-16T18:02:05.482Z,100521.28
2022-11-16T18:04:32.782Z,100516.84
2022-11-16T18:07:00.874Z,100511.72
2022-11-16T18:09:28.186Z,100517.91
2022-11-16T18:11:55.507Z,100508.78
2022-11-16T18:14:23.206Z,100517.78
2022-11-16T18:16:50.661Z,100513.06
2022-11-16T18:19:19.367Z,100520.53
2022-11-16T18:21:47.146Z,100517.59
2022-11-16T18:24:14.801Z,100516.38
2022-11-16T18:26:42.044Z,100512.44
2022-11-16T18:29:12.993Z,100511.22
2022-11-16T18:31:40.313Z,100514.34
2022-11-16T18:34:07.859Z,100511.50
2022-11-16T18:36:35.848Z,100512.31
2022-11-16T18:39:03.465Z,100520.91
2022-11-16T18:41:31.373Z,100509.31
2022-11-16T18:44:03.134Z,100513.28
2022-11-16T18:46:33.041Z,100509.66
2022-11-16T18:49:01.132Z,100504.53
2022-11-16T18:51:29.996Z,100503.44
2022-11-16T18:53:58.659Z,100506.19
2022-11-16T18:56:27.316Z,100507.34
2022-11-16T18:58:56.172Z,100502.56
2022-11-16T19:01:25.925Z,100489.84
2022-11-16T19:03:54.956Z,100501.25
2022-11-16T19:06:23.295Z,100505.03
2022-11-16T19:08:56.563Z,100512.09
2022-11-16T19:11:24.816Z,100508.81
2022-11-16T19:14:00.947Z,100505.59
2022-11-16T19:16:28.606Z,100507.47
2022-11-16T19:18:55.805Z,100511.75
2022-11-16T19:21:23.614Z,100516.81
2022-11-16T19:23:53.136Z,100506.44
2022-11-16T19:26:22.098Z,100512.66
2022-11-16T19:28:52.846Z,100504.41
2022-11-16T19:31:28.904Z,100511.16
2022-11-16T19:34:02.644Z,100510.41
2022-11-16T19:36:31.094Z,100503.41
2022-11-16T19:38:58.913Z,100502.59
2022-11-16T19:41:27.222Z,100501.81
2022-11-16T19:43:58.813Z,100508.56
2022-11-16T19:46:31.659Z,100496.75
2022-11-16T19:49:00.414Z,100503.06
2022-11-16T19:51:30.599Z,100500.56
2022-11-16T19:54:00.402Z,100500.41
2022-11-16T19:56:28.649Z,100489.31
2022-11-16T19:58:56.158Z,100484.97
2022-11-16T20:01:28.095Z,100499.06
2022-11-16T20:03:58.035Z,100499.84
2022-11-16T20:06:29.382Z,100492.75
2022-11-16T20:09:00.576Z,100495.50
2022-11-16T20:11:30.374Z,100494.25
2022-11-16T20:13:59.265Z,100492.31
2022-11-16T20:16:32.808Z,100492.69
2022-11-16T20:19:05.130Z,100489.13
2022-11-16T20:21:35.358Z,100493.34
2022-11-16T20:24:06.771Z,100488.09
2022-11-16T20:26:37.236Z,100492.72
2022-11-16T20:29:04.621Z,100485.97
2022-11-16T20:31:33.854Z,100489.81
2022-11-16T20:34:03.819Z,100491.59
2022-11-16T20:36:33.271Z,100489.53
2022-11-16T20:39:02.219Z,100483.88
2022-11-16T20:41:31.504Z,100484.56
2022-11-16T20:44:01.428Z,100485.69
2022-11-16T20:46:33.665Z,100485.59
2022-11-16T20:49:02.065Z,100477.16
2022-11-16T20:51:30.481Z,100476.38
2022-11-16T20:53:58.626Z,100477.09
2022-11-16T20:56:26.221Z,100473.06
2022-11-16T20:58:53.512Z,100466.78
2022-11-16T21:01:29.068Z,100464.13
2022-11-16T21:03:56.670Z,100461.75
2022-11-16T21:06:23.865Z,100464.50
2022-11-16T21:08:51.442Z,100467.25
2022-11-16T21:11:21.607Z,100460.81
2022-11-16T21:14:07.562Z,100461.97
2022-11-16T21:16:35.333Z,100450.88
2022-11-16T21:19:03.636Z,100445.75
2022-11-16T21:21:32.523Z,100444.41
2022-11-16T21:24:00.186Z,100440.03
2022-11-16T21:26:32.234Z,100439.94
2022-11-16T21:29:00.791Z,100443.06
2022-11-16T21:31:30.526Z,100436.69
2022-11-16T21:33:58.686Z,100430.25
2022-11-16T21:36:27.905Z,100440.94
2022-11-16T21:38:55.989Z,100427.97
2022-11-16T21:41:24.296Z,100420.63
2022-11-16T21:43:52.175Z,100423.81
2022-11-16T21:46:25.816Z,100424.63
2022-11-16T21:48:55.615Z,100421.41
2022-11-16T21:51:25.527Z,100423.28
2022-11-16T21:53:53.248Z,100427.97
2022-11-16T21:56:23.021Z,100435.34
2022-11-16T21:58:50.701Z,100428.22
2022-11-16T22:01:18.398Z,100436.03
2022-11-16T22:03:45.937Z,100434.31
2022-11-16T22:06:34.579Z,100434.56
2022-11-16T22:09:02.377Z,100429.75
2022-11-16T22:11:29.573Z,100428.50
2022-11-16T22:13:56.679Z,100426.44
2022-11-16T22:16:23.834Z,100428.78
2022-11-16T22:18:51.385Z,100434.25
2022-11-16T22:21:18.486Z,100429.19
2022-11-16T22:23:45.747Z,100437.13
2022-11-16T22:26:14.769Z,100431.25
2022-11-16T22:28:42.241Z,100440.28
2022-11-16T22:31:14.958Z,100439.25
2022-11-16T22:33:42.543Z,100440.06
2022-11-16T22:36:10.845Z,100438.19
2022-11-16T22:38:38.466Z,100436.72
2022-11-16T22:41:10.606Z,100430.53
2022-11-16T22:43:39.357Z,100423.53
2022-11-16T22:46:07.040Z,100423.63
2022-11-16T22:48:39.711Z,100417.06
2022-11-16T22:51:27.633Z,100423.72
2022-11-16T22:54:03.199Z,100419.72
2022-11-16T22:56:32.349Z,100419.72
2022-11-16T22:59:00.953Z,100403.13
2022-11-16T23:01:28.056Z,100407.03
2022-11-16T23:03:55.494Z,100405.63
2022-11-16T23:06:22.632Z,100406.63
2022-11-16T23:08:50.040Z,100402.72
2022-11-16T23:11:37.885Z,100408.31
2022-11-16T23:14:25.644Z,100401.31
2022-11-16T23:16:55.158Z,100406.81
2022-11-16T23:19:42.072Z,100399.25
2022-11-16T23:22:33.411Z,100400.41
2022-11-16T23:25:19.719Z,100395.25
2022-11-16T23:28:06.964Z,100397.66
2022-11-16T23:30:35.342Z,100388.63
2022-11-16T23:33:03.025Z,100388.16
2022-11-16T23:35:30.129Z,100386.66
2022-11-16T23:37:58.286Z,100387.47
2022-11-16T23:40:34.884Z,100384.72
2022-11-16T23:43:21.176Z,100381.50
2022-11-16T23:45:48.475Z,100386.22
2022-11-16T23:48:17.273Z,100371.69
2022-11-16T23:50:46.333Z,100373.63
2022-11-16T23:53:14.233Z,100370.00
2022-11-16T23:55:41.623Z,100368.03
2022-11-16T23:58:14.159Z,100367.13
